Elmwood, Oklahoma
Current Conditions -  °F | °C
As of 4:15 AM on Thursday 29 Jan 2015 (Local Time) from KLBL Reporting Station
Clear Clear  
Wind Chill: 32°   Ceiling: Unl
Heat Index: 39°   Visibility: 10mi
Dew Point: 30°   Wind: 12mph
Humidity: 70%   Direction: 300°WNW
Pressure: 30.32"   Gusts: NA
Location:  36.7319°N, 100.575°W
Report Text: KLBL 291015Z AUTO 30010KT 10SM CLR 04/M01 A3032 RMK AO1
Loading
Personal Weather Stations






























Interactive Weather Map New forecast layout! Learn more

10-Day Weather Forecast

Advertisements
Track Severe Weather on mobile